Dublin Airport

Airport
ICAO code: 
EIDW
IATA Code: 
DUB
Summary
ICAO Region: 
EUR
Territory: 
Location: 
Collinstown, Fingal,
Serving: 
Dublin
Elevation: 
242 ft
Coordinates: 
Aerial View: 
53° 25' 40.911" N, 6° 15' 19.638" W
Metar
Observation
EIDW 270000Z 32022G32KT 9999 FEW018 SCT030 BKN170 04/M02 Q1002 NOSIG
Station
Dublin Airport
Date/Time
2021-11-27 00:00:00
Wind direction
320°
Wind speed
22 kts
Lowest cloud amount
few clouds
Temperature
4°C
Dew point
-2°C
Humidity
64%
QNH
1002 hPa
Weather condition
n/a

Description

International airport serving the city of Dublin.

Climatology

Temperate Marine climate/Oceanic climate (Köppen climate classification Cfb). Moderately cool summer and comparatively warm winter with a temperature range of only 14°C. Prevailing south-westerly winds from the Atlantic Ocean.

Runways

Designator Length Width Surface Rops
11/29 1339 61 ASP Yes/Yes
16/34 2072 61 ASP Yes/Yes
10/28 2637 45 CON Yes/Yes

SKYbrary Partners:

Safety knowledge contributed by: